Time;durP1;ratioP1;P1;durP2;ratioP2;P2;SDS_P1;SDS_P2;PMS_P1;PMS_P2;Temp;Humidity;BMP_temperature;BMP_pressure;BME280_temperature;BME280_humidity;BME280_pressure;Samples;Min_cycle;Max_cycle;Signal;HPM_P1;HPM_P2
2021/09/26 00:01:38;;;;;;;11.88;9.05;;;;;;;21.77;100.00;96489.72;4990883;28;20066;-60
2021/09/26 00:04:06;;;;;;;13.55;8.70;;;;;;;21.66;100.00;96495.78;5000955;28;20074;-58
2021/09/26 00:06:35;;;;;;;11.65;8.52;;;;;;;21.67;100.00;96486.66;4990599;28;20061;-60
2021/09/26 00:09:04;;;;;;;15.48;9.27;;;;;;;21.44;100.00;96485.34;4986137;28;20080;-60
2021/09/26 00:11:34;;;;;;;12.65;9.63;;;;;;;21.49;100.00;96484.69;4984648;28;20062;-60
2021/09/26 00:14:03;;;;;;;12.52;9.63;;;;;;;21.68;100.00;96494.53;4989340;28;20063;-59
2021/09/26 00:16:31;;;;;;;11.38;9.32;;;;;;;21.66;100.00;96485.03;4993909;28;20074;-60
2021/09/26 00:19:00;;;;;;;15.48;9.55;;;;;;;21.68;100.00;96491.84;4989269;28;20156;-59
2021/09/26 00:21:28;;;;;;;13.23;9.15;;;;;;;21.53;100.00;96491.28;4991022;28;20069;-59
2021/09/26 00:23:57;;;;;;;14.93;9.65;;;;;;;21.01;100.00;96488.50;4991237;28;20535;-60
2021/09/26 00:26:25;;;;;;;12.32;9.15;;;;;;;20.48;100.00;96491.22;4988648;28;20451;-60
2021/09/26 00:28:55;;;;;;;12.50;9.50;;;;;;;20.44;100.00;96481.97;4992944;28;20085;-60
2021/09/26 00:31:24;;;;;;;12.57;9.48;;;;;;;20.81;100.00;96485.03;4994140;28;20512;-58
2021/09/26 00:33:52;;;;;;;11.70;9.68;;;;;;;20.96;100.00;96491.00;4985234;28;20066;-60
2021/09/26 00:36:21;;;;;;;14.60;10.40;;;;;;;20.88;100.00;96507.31;4994413;28;20062;-60
2021/09/26 00:38:49;;;;;;;13.30;10.38;;;;;;;21.19;100.00;96501.25;4988586;28;20073;-57
2021/09/26 00:41:17;;;;;;;13.93;10.60;;;;;;;;;;4995046;28;20065;-58
2021/09/26 00:43:46;;;;;;;14.82;10.77;;;;;;;21.22;100.00;96498.16;4987425;28;20513;-60
2021/09/26 00:46:15;;;;;;;18.52;11.25;;;;;;;20.91;100.00;96508.75;5004837;28;20488;-60
2021/09/26 00:48:44;;;;;;;16.13;12.23;;;;;;;20.50;100.00;96509.75;4984015;28;20070;-60
2021/09/26 00:51:13;;;;;;;15.43;11.70;;;;;;;21.03;100.00;96501.72;4990915;28;20063;-60
2021/09/26 00:53:42;;;;;;;14.88;11.52;;;;;;;20.60;100.00;96502.16;4987843;28;20070;-60
2021/09/26 00:56:12;;;;;;;16.17;11.97;;;;;;;20.63;100.00;96502.59;4988478;28;20069;-59
2021/09/26 00:58:41;;;;;;;16.73;11.75;;;;;;;20.72;100.00;96510.44;4990094;28;20504;-60
2021/09/26 01:01:09;;;;;;;17.05;11.88;;;;;;;20.62;100.00;96510.84;4998702;28;20062;-60
2021/09/26 01:03:39;;;;;;;15.23;12.23;;;;;;;20.84;100.00;96503.41;4988304;28;20073;-60
2021/09/26 01:06:20;;;;;;;16.45;12.98;;;;;;;21.01;100.00;96503.78;4941708;28;1204732;-60
2021/09/26 01:08:57;;;;;;;14.75;12.30;;;;;;;21.42;100.00;96500.00;4984575;28;20093;-58
2021/09/26 01:11:33;;;;;;;14.60;12.30;;;;;;;21.32;100.00;96503.09;4985376;28;20085;-60
2021/09/26 01:14:07;;;;;;;14.63;12.10;;;;;;;21.12;100.00;96510.34;4989732;28;20077;-59
2021/09/26 01:16:38;;;;;;;15.40;12.57;;;;;;;21.50;100.00;96489.00;4989704;28;20065;-60
2021/09/26 01:19:24;;;;;;;16.75;12.57;;;;;;;21.56;100.00;96501.59;5000242;28;20101;-59
2021/09/26 01:21:55;;;;;;;17.33;12.02;;;;;;;21.15;100.00;96502.72;4987928;28;20061;-61
2021/09/26 01:25:12;;;;;;;14.60;11.15;;;;;;;21.53;100.00;96492.09;4992373;28;20076;-60
2021/09/26 01:28:02;;;;;;;13.93;11.27;;;;;;;21.45;100.00;96494.22;4986198;28;20069;-60
2021/09/26 01:30:38;;;;;;;16.57;11.40;;;;;;;21.33;100.00;96496.69;4986767;28;20065;-58
2021/09/26 01:33:15;;;;;;;14.63;11.38;;;;;;;21.01;100.00;96507.28;4990058;28;20536;-59
2021/09/26 01:35:54;;;;;;;17.67;12.57;;;;;;;21.25;100.00;96510.34;4986741;28;20610;-60
2021/09/26 01:38:28;;;;;;;18.00;12.93;;;;;;;21.36;100.00;96507.03;4983480;28;20058;-60
2021/09/26 01:40:59;;;;;;;15.23;12.88;;;;;;;21.39;100.00;96513.81;4987055;28;20073;-59
2021/09/26 01:43:34;;;;;;;17.42;12.77;;;;;;;21.40;100.00;96513.59;4992099;28;20441;-59
2021/09/26 01:46:07;;;;;;;20.15;13.93;;;;;;;20.51;100.00;96525.69;4992281;28;20941;-60
2021/09/26 01:48:40;;;;;;;17.25;12.88;;;;;;;21.24;100.00;96520.25;4989020;28;20061;-58
2021/09/26 01:51:10;;;;;;;17.30;13.57;;;;;;;21.43;100.00;96505.13;4990503;28;20070;-60
2021/09/26 01:53:43;;;;;;;16.77;13.15;;;;;;;21.53;100.00;96516.25;4989809;28;20433;-59
2021/09/26 01:56:14;;;;;;;17.30;13.35;;;;;;;21.71;100.00;96522.78;5002597;28;20558;-60
2021/09/26 01:58:44;;;;;;;19.80;14.13;;;;;;;21.20;100.00;96526.25;4987246;28;20068;-60
2021/09/26 02:01:16;;;;;;;19.05;14.27;;;;;;;21.61;100.00;96517.88;4991335;28;20106;-60
2021/09/26 02:03:46;;;;;;;16.23;13.73;;;;;;;21.79;100.00;96522.56;4990236;28;20449;-60
2021/09/26 02:06:15;;;;;;;17.67;13.67;;;;;;;21.78;100.00;96520.88;4988720;28;20070;-60
2021/09/26 02:08:44;;;;;;;19.58;14.45;;;;;;;21.64;100.00;96512.06;4990476;28;20072;-60
2021/09/26 02:11:14;;;;;;;18.13;14.02;;;;;;;21.62;100.00;96518.72;4985250;28;20061;-60
2021/09/26 02:13:44;;;;;;;18.92;13.90;;;;;;;21.72;100.00;96525.28;4993405;28;20084;-60
2021/09/26 02:16:15;;;;;;;18.02;13.23;;;;;;;21.25;100.00;96529.94;5010394;28;20098;-59
2021/09/26 02:18:45;;;;;;;20.25;14.65;;;;;;;21.51;100.00;96512.97;4990535;28;20061;-60
2021/09/26 02:21:14;;;;;;;16.92;13.52;;;;;;;21.67;100.00;96518.88;4987771;28;20073;-59
2021/09/26 02:23:43;;;;;;;18.02;13.90;;;;;;;21.55;100.00;96516.06;4985167;28;20493;-60
2021/09/26 02:26:12;;;;;;;18.38;13.57;;;;;;;21.73;100.00;96510.81;4989367;28;20069;-59
2021/09/26 02:28:41;;;;;;;17.13;13.23;;;;;;;21.53;100.00;96524.28;4987485;28;20066;-59
2021/09/26 02:31:10;;;;;;;19.05;14.02;;;;;;;21.43;100.00;96517.72;4989085;28;20058;-59
2021/09/26 02:33:44;;;;;;;18.10;13.70;;;;;;;20.81;100.00;96522.56;4989405;28;20065;-57
2021/09/26 02:36:15;;;;;;;18.05;13.55;;;;;;;20.70;100.00;96517.84;4988742;28;20142;-58
2021/09/26 02:38:43;;;;;;;16.23;13.18;;;;;;;20.79;100.00;96517.44;4987926;28;20192;-60
2021/09/26 02:41:16;;;;;;;18.25;13.18;;;;;;;20.75;100.00;96512.66;4998197;28;20077;-60
2021/09/26 02:43:47;;;;;;;18.23;13.23;;;;;;;21.21;100.00;96517.16;4987904;28;20096;-60
2021/09/26 02:46:18;;;;;;;17.10;13.70;;;;;;;21.43;100.00;96512.38;4989720;28;20085;-58
2021/09/26 02:48:48;;;;;;;19.23;14.00;;;;;;;21.20;100.00;96512.84;4990659;28;20065;-58
2021/09/26 02:51:17;;;;;;;18.75;14.40;;;;;;;21.58;100.00;96499.53;4988982;28;20062;-60
2021/09/26 02:53:47;;;;;;;16.13;13.48;;;;;;;21.49;100.00;96506.97;4986307;28;20080;-58
2021/09/26 02:56:16;;;;;;;17.05;14.55;;;;;;;21.20;100.00;96502.94;4985962;28;20097;-59
2021/09/26 02:58:44;;;;;;;18.80;14.48;;;;;;;21.36;100.00;96496.28;4985744;28;20094;-60
2021/09/26 03:01:13;;;;;;;17.95;13.65;;;;;;;21.55;100.00;96491.91;4987063;28;20077;-60
2021/09/26 03:03:42;;;;;;;17.55;13.20;;;;;;;21.37;100.00;96503.31;4985303;28;20073;-60
2021/09/26 03:06:12;;;;;;;17.88;14.85;;;;;;;21.22;100.00;96506.19;4983442;28;20064;-60
2021/09/26 03:08:40;;;;;;;17.77;13.48;;;;;;;21.17;100.00;96513.25;4989464;28;20073;-60
2021/09/26 03:11:09;;;;;;;17.40;12.98;;;;;;;21.62;100.00;96508.78;4984961;28;20070;-60
2021/09/26 03:13:37;;;;;;;16.40;13.45;;;;;;;21.43;100.00;96504.31;4986777;28;20082;-60
2021/09/26 03:16:07;;;;;;;20.35;12.85;;;;;;;20.69;100.00;96514.34;4990545;28;20077;-61
2021/09/26 03:18:36;;;;;;;17.35;13.57;;;;;;;20.80;100.00;96508.34;4990969;28;20066;-60
2021/09/26 03:21:04;;;;;;;19.92;14.70;;;;;;;20.21;100.00;96511.81;4982178;28;20449;-60
2021/09/26 03:23:34;;;;;;;17.15;13.40;;;;;;;21.19;100.00;96505.81;4989006;28;20501;-60
2021/09/26 03:26:02;;;;;;;18.27;14.07;;;;;;;20.82;100.00;96508.97;4988204;28;20085;-60
2021/09/26 03:28:31;;;;;;;17.48;13.38;;;;;;;20.37;100.00;96498.03;4990796;28;20082;-57
2021/09/26 03:30:59;;;;;;;16.02;13.23;;;;;;;20.52;100.00;96491.69;4981288;28;20339;-60
2021/09/26 03:33:28;;;;;;;19.63;14.05;;;;;;;20.53;100.00;96499.50;4985130;28;20077;-60
2021/09/26 03:35:56;;;;;;;18.80;13.13;;;;;;;21.12;100.00;96502.31;4990960;28;20066;-60
2021/09/26 03:38:25;;;;;;;16.02;13.73;;;;;;;20.93;100.00;96501.34;4986824;28;20077;-53
2021/09/26 03:40:55;;;;;;;16.20;12.60;;;;;;;20.78;100.00;96491.63;4985935;28;20120;-59
2021/09/26 03:43:23;;;;;;;18.55;13.13;;;;;;;21.02;100.00;96495.50;4990852;28;20089;-60
2021/09/26 03:45:52;;;;;;;16.30;12.15;;;;;;;20.24;100.00;96495.34;4985195;28;20464;-61
2021/09/26 03:48:21;;;;;;;14.43;12.55;;;;;;;20.38;100.00;96493.50;4990563;28;20077;-60
2021/09/26 03:50:50;;;;;;;16.67;12.10;;;;;;;20.53;100.00;96490.63;4986067;28;20477;-59
2021/09/26 03:53:19;;;;;;;14.65;11.23;;;;;;;20.95;100.00;96488.53;4987116;28;20069;-60
2021/09/26 03:55:48;;;;;;;14.93;11.68;;;;;;;20.89;100.00;96487.53;4986981;28;20096;-59
2021/09/26 03:58:18;;;;;;;15.00;11.45;;;;;;;20.69;100.00;96492.91;4987314;28;20085;-60
2021/09/26 04:00:46;;;;;;;14.27;11.23;;;;;;;20.82;100.00;96498.25;4989195;28;20066;-60
2021/09/26 04:03:15;;;;;;;14.88;11.80;;;;;;;19.75;100.00;96490.28;4986752;28;20065;-60
2021/09/26 04:05:43;;;;;;;12.90;10.93;;;;;;;19.74;100.00;96481.44;4988692;28;20414;-60
2021/09/26 04:08:12;;;;;;;13.35;10.55;;;;;;;19.45;100.00;96475.34;4987591;28;20066;-61
2021/09/26 04:10:40;;;;;;;12.95;10.40;;;;;;;19.81;100.00;96473.41;4986028;28;20653;-60
2021/09/26 04:13:09;;;;;;;12.05;10.25;;;;;;;19.89;100.00;96465.22;4988712;28;20516;-59
2021/09/26 04:15:38;;;;;;;11.23;9.75;;;;;;;20.50;100.00;96473.09;4990196;28;20081;-60
2021/09/26 04:18:07;;;;;;;10.15;8.93;;;;;;;20.43;100.00;96458.88;4989974;28;21650;-60
2021/09/26 04:20:35;;;;;;;11.45;9.30;;;;;;;19.92;100.00;96456.75;4990239;28;20066;-61
2021/09/26 04:23:04;;;;;;;11.02;9.18;;;;;;;19.96;100.00;96459.84;4987524;28;20066;-60
2021/09/26 04:25:32;;;;;;;10.25;9.15;;;;;;;20.15;100.00;96461.75;4992466;28;20089;-60
2021/09/26 04:28:01;;;;;;;13.40;10.10;;;;;;;20.63;100.00;96466.94;4987786;28;20316;-58
2021/09/26 04:30:29;;;;;;;13.35;8.73;;;;;;;20.79;100.00;96460.31;4991235;28;20073;-59
2021/09/26 04:32:59;;;;;;;10.68;8.27;;;;;;;20.76;100.00;96460.72;4990985;28;20727;-59
2021/09/26 04:35:28;;;;;;;9.85;8.85;;;;;;;20.80;100.00;96464.66;4996419;28;20081;-60
2021/09/26 04:37:57;;;;;;;10.45;8.65;;;;;;;20.84;100.00;96471.22;4989470;28;20476;-60
2021/09/26 04:40:26;;;;;;;10.73;8.95;;;;;;;20.93;100.00;96472.66;4993596;28;20098;-61
2021/09/26 04:42:54;;;;;;;9.98;8.55;;;;;;;20.99;100.00;96468.31;4988840;28;20469;-60
2021/09/26 04:45:23;;;;;;;9.98;8.98;;;;;;;20.88;100.00;96468.94;4988852;28;20066;-60
2021/09/26 04:47:51;;;;;;;14.27;9.57;;;;;;;20.15;100.00;96462.56;4994782;28;20457;-60
2021/09/26 04:50:21;;;;;;;11.48;8.45;;;;;;;20.45;100.00;96466.72;4990549;28;20117;-60
2021/09/26 04:52:49;;;;;;;10.50;8.63;;;;;;;20.43;100.00;96469.56;4996439;28;20184;-60
2021/09/26 04:55:23;;;;;;;17.23;8.68;;;;;;;20.90;100.00;96470.41;4992978;28;20484;-60
2021/09/26 04:57:52;;;;;;;10.35;8.25;;;;;;;20.78;100.00;96475.56;4993145;28;20066;-61
2021/09/26 05:00:21;;;;;;;11.27;8.38;;;;;;;19.96;100.00;96462.53;4993921;28;20061;-60
2021/09/26 05:02:50;;;;;;;9.68;8.40;;;;;;;19.51;100.00;96460.34;4993084;28;20476;-60
2021/09/26 05:05:18;;;;;;;11.85;8.57;;;;;;;19.76;100.00;96449.13;4989938;28;20073;-60
2021/09/26 05:07:48;;;;;;;10.20;7.90;;;;;;;19.67;100.00;96456.50;4990743;28;20113;-59
2021/09/26 05:10:16;;;;;;;9.05;7.82;;;;;;;19.74;100.00;96457.34;4985722;28;20074;-60
2021/09/26 05:12:45;;;;;;;9.32;8.15;;;;;;;19.77;100.00;96462.31;4987735;28;20070;-59
2021/09/26 05:15:14;;;;;;;10.77;8.00;;;;;;;20.31;100.00;96458.66;4993443;28;20065;-53
2021/09/26 05:17:42;;;;;;;11.18;8.43;;;;;;;20.10;100.00;96454.34;4990863;28;20066;-58
2021/09/26 05:20:12;;;;;;;12.18;8.07;;;;;;;20.32;100.00;96457.63;4987658;28;20077;-60
2021/09/26 05:22:40;;;;;;;11.52;7.95;;;;;;;20.26;100.00;96462.97;4989700;28;20086;-56
2021/09/26 05:25:11;;;;;;;9.73;8.10;;;;;;;20.56;100.00;96466.09;4985595;28;20477;-60
2021/09/26 05:27:40;;;;;;;9.15;7.65;;;;;;;21.09;100.00;96457.97;4989002;28;20073;-60
2021/09/26 05:30:09;;;;;;;8.63;7.47;;;;;;;21.26;100.00;96450.28;4986524;28;20674;-60
2021/09/26 05:32:39;;;;;;;13.13;8.10;;;;;;;20.89;100.00;96457.19;4987517;28;20065;-59
2021/09/26 05:35:08;;;;;;;8.02;7.20;;;;;;;20.53;100.00;96456.63;4982945;28;20070;-60
2021/09/26 05:37:37;;;;;;;10.00;7.67;;;;;;;20.65;100.00;96459.53;4986660;28;20074;-60
2021/09/26 05:40:06;;;;;;;7.90;7.07;;;;;;;21.24;100.00;96455.88;4987343;28;20078;-59
2021/09/26 05:42:36;;;;;;;9.32;7.07;;;;;;;21.28;100.00;96462.44;4986506;28;20716;-61
2021/09/26 05:45:06;;;;;;;7.57;6.78;;;;;;;21.32;100.00;96455.63;4985745;28;20066;-59
2021/09/26 05:47:34;;;;;;;9.90;6.55;;;;;;;21.63;100.00;96456.75;4984772;28;20084;-61
2021/09/26 05:50:05;;;;;;;9.07;7.10;;;;;;;21.26;100.00;96467.19;4985526;28;20059;-60
2021/09/26 05:52:34;;;;;;;8.23;7.10;;;;;;;20.79;100.00;96471.03;4983993;28;20070;-58
2021/09/26 05:55:03;;;;;;;8.10;6.93;;;;;;;21.63;100.00;96467.50;4987189;28;20507;-61
2021/09/26 05:57:31;;;;;;;8.32;7.07;;;;;;;21.96;100.00;96469.19;4986253;28;20073;-60
2021/09/26 06:00:03;;;;;;;9.07;6.85;;;;;;;22.05;100.00;96476.75;4985004;28;20077;-61
2021/09/26 06:02:33;;;;;;;10.00;7.03;;;;;;;22.00;100.00;96479.28;4983357;28;20445;-60
2021/09/26 06:05:01;;;;;;;;;;;;;;;21.90;100.00;96478.09;4986409;28;20535;-62
2021/09/26 06:07:30;;;;;;;11.18;7.35;;;;;;;22.21;100.00;96469.25;4988017;28;20353;-62
2021/09/26 06:09:58;;;;;;;8.43;6.35;;;;;;;22.17;100.00;96468.03;4986665;28;20073;-60
2021/09/26 06:12:27;;;;;;;7.35;6.35;;;;;;;22.26;100.00;96472.09;4983104;28;20070;-61
2021/09/26 06:14:55;;;;;;;8.75;6.95;;;;;;;22.34;100.00;96477.22;4986396;28;20536;-61
2021/09/26 06:17:25;;;;;;;10.40;7.28;;;;;;;22.63;100.00;96467.66;4985483;28;20077;-62
2021/09/26 06:19:53;;;;;;;8.48;7.07;;;;;;;22.57;100.00;96470.41;4986477;28;20492;-60
2021/09/26 06:22:24;;;;;;;10.60;6.82;;;;;;;21.43;100.00;96466.75;4988016;28;20081;-58
2021/09/26 06:24:52;;;;;;;;;;;;;;;21.67;100.00;96451.78;4986473;28;20070;-62
2021/09/26 06:27:21;;;;;;;7.82;6.43;;;;;;;22.04;100.00;96463.53;4986755;28;19961;-61
2021/09/26 06:29:49;;;;;;;7.60;6.38;;;;;;;22.75;100.00;96455.16;4987168;28;20161;-62
2021/09/26 06:32:18;;;;;;;11.02;6.45;;;;;;;22.43;100.00;96464.31;4985340;28;20484;-62
2021/09/26 06:34:48;;;;;;;8.45;6.30;;;;;;;21.91;100.00;96461.75;4986676;28;20077;-62
2021/09/26 06:37:16;;;;;;;8.85;6.57;;;;;;;21.73;100.00;96459.81;4988010;28;20077;-61
2021/09/26 06:39:45;;;;;;;7.18;5.95;;;;;;;22.29;100.00;96458.22;4985478;28;20555;-62
2021/09/26 06:42:13;;;;;;;8.73;6.32;;;;;;;22.52;100.00;96463.00;4985757;28;20074;-61
2021/09/26 06:44:41;;;;;;;9.32;6.15;;;;;;;22.26;100.00;96467.56;4985896;28;20491;-62
2021/09/26 06:47:10;;;;;;;9.50;5.57;;;;;;;23.03;100.00;96477.25;4986226;28;20068;-62
2021/09/26 06:49:39;;;;;;;7.75;5.80;;;;;;;23.45;100.00;96475.53;4980693;28;20151;-59
2021/09/26 06:52:12;;;;;;;8.10;6.63;;;;;;;23.01;100.00;96479.34;4988574;28;20086;-62
2021/09/26 06:54:42;;;;;;;9.73;6.63;;;;;;;22.88;100.00;96474.88;4984599;28;20062;-60
2021/09/26 06:57:11;;;;;;;10.10;6.38;;;;;;;23.36;100.00;96482.25;4982674;28;20089;-62
2021/09/26 06:59:40;;;;;;;9.88;6.72;;;;;;;24.09;100.00;96479.50;4984358;28;20078;-62
2021/09/26 07:02:08;;;;;;;7.53;5.22;;;;;;;23.81;100.00;96485.47;4984825;28;20065;-61
2021/09/26 07:04:37;;;;;;;7.10;5.45;;;;;;;23.91;100.00;96485.72;4985579;28;20100;-61
2021/09/26 07:07:06;;;;;;;8.25;5.55;;;;;;;24.50;100.00;96485.09;4986219;28;20105;-61
2021/09/26 07:09:35;;;;;;;7.47;5.30;;;;;;;24.99;100.00;96475.75;4985321;28;20068;-61
2021/09/26 07:12:05;;;;;;;6.45;5.30;;;;;;;24.89;100.00;96474.72;4985976;28;20072;-61
2021/09/26 07:14:33;;;;;;;7.07;5.20;;;;;;;25.15;100.00;96476.13;4984523;28;20061;-61
2021/09/26 07:17:02;;;;;;;5.75;4.88;;;;;;;25.12;100.00;96487.38;4986078;28;20076;-60
2021/09/26 07:19:30;;;;;;;6.90;5.00;;;;;;;25.45;100.00;96486.75;4986681;28;20089;-62
2021/09/26 07:21:59;;;;;;;10.63;4.80;;;;;;;26.03;93.93;96480.38;4984798;28;20069;-59
2021/09/26 07:24:28;;;;;;;5.75;4.70;;;;;;;25.93;94.03;96482.88;4985436;28;20058;-58
2021/09/26 07:26:58;;;;;;;5.60;4.35;;;;;;;25.08;100.00;96479.72;4982243;28;20509;-61
2021/09/26 07:29:26;;;;;;;6.15;5.05;;;;;;;25.66;94.37;96477.19;4982035;28;20062;-62
2021/09/26 07:31:55;;;;;;;7.63;4.72;;;;;;;25.44;96.92;96471.63;4982321;28;20532;-60
2021/09/26 07:34:23;;;;;;;6.57;4.43;;;;;;;24.46;100.00;96475.84;4990389;28;20569;-63
2021/09/26 07:36:52;;;;;;;6.50;4.28;;;;;;;24.67;100.00;96464.47;4989848;28;20073;-61
2021/09/26 07:39:20;;;;;;;6.78;4.60;;;;;;;24.96;100.00;96462.75;4990783;28;20070;-61
2021/09/26 07:41:50;;;;;;;8.02;4.65;;;;;;;25.77;99.27;96447.47;4988454;28;20066;-61
2021/09/26 07:44:20;;;;;;;7.43;4.50;;;;;;;25.22;100.00;96442.53;4987971;28;20070;-61
2021/09/26 07:46:50;;;;;;;5.65;4.13;;;;;;;24.94;100.00;96445.13;4988211;28;20074;-60
2021/09/26 07:49:18;;;;;;;4.93;4.30;;;;;;;24.87;100.00;96447.97;4990878;28;20070;-62
2021/09/26 07:51:47;;;;;;;7.40;3.80;;;;;;;25.25;100.00;96446.66;4990472;28;20163;-61
2021/09/26 07:54:16;;;;;;;4.65;3.50;;;;;;;26.44;89.14;96443.25;4989139;28;20074;-61
2021/09/26 07:56:45;;;;;;;5.37;3.93;;;;;;;26.95;82.65;96441.34;4988248;28;20073;-60
2021/09/26 07:59:13;;;;;;;8.32;3.50;;;;;;;27.42;72.23;96435.47;4990697;28;20065;-62
2021/09/26 08:01:43;;;;;;;8.38;4.00;;;;;;;26.68;79.40;96450.16;5015176;28;20051;-62
2021/09/26 08:04:12;;;;;;;5.18;3.60;;;;;;;27.13;75.10;96462.75;4993661;28;20542;-58
2021/09/26 08:06:41;;;;;;;7.32;3.42;;;;;;;26.81;81.72;96459.00;4987935;28;20456;-61
2021/09/26 08:09:09;;;;;;;6.53;3.78;;;;;;;27.19;77.40;96461.75;4987642;28;20077;-60
2021/09/26 08:11:38;;;;;;;9.63;3.72;;;;;;;27.96;69.75;96453.75;4985039;28;20076;-61
2021/09/26 08:14:06;;;;;;;5.55;3.58;;;;;;;27.92;69.78;96451.53;4985779;28;20169;-62
2021/09/26 08:16:35;;;;;;;5.82;3.97;;;;;;;26.73;76.44;96454.81;4986609;28;20618;-62
2021/09/26 08:19:05;;;;;;;7.20;3.75;;;;;;;27.31;74.32;96453.50;4989203;28;20062;-62
2021/09/26 08:21:33;;;;;;;7.97;3.88;;;;;;;27.44;74.11;96450.41;4986674;28;20073;-60
2021/09/26 08:24:06;;;;;;;4.78;3.50;;;;;;;27.94;65.77;96440.44;4986542;28;20074;-62
2021/09/26 08:26:35;;;;;;;7.00;3.90;;;;;;;28.30;66.42;96440.78;4986670;28;20073;-62
2021/09/26 08:29:03;;;;;;;5.07;3.67;;;;;;;28.32;62.45;96452.19;4988543;28;20065;-62
2021/09/26 08:31:32;;;;;;;6.45;4.10;;;;;;;28.22;64.82;96446.66;4989628;28;20070;-60
2021/09/26 08:34:01;;;;;;;8.77;3.80;;;;;;;28.86;60.20;96458.34;4987874;28;20424;-60
2021/09/26 08:36:31;;;;;;;9.40;4.30;;;;;;;28.38;74.24;96456.56;4987949;28;20076;-62
2021/09/26 08:38:59;;;;;;;6.20;4.55;;;;;;;28.90;68.55;96445.06;4988275;28;20058;-61
2021/09/26 08:41:28;;;;;;;5.03;3.67;;;;;;;28.49;71.57;96447.47;4991225;28;20073;-62
2021/09/26 08:43:56;;;;;;;7.13;4.43;;;;;;;28.01;71.47;96441.06;4985800;28;20077;-62
2021/09/26 08:46:26;;;;;;;6.40;4.00;;;;;;;28.94;64.14;96445.34;4990815;28;20077;-62
2021/09/26 08:48:55;;;;;;;5.32;4.05;;;;;;;28.46;69.96;96445.31;4987948;28;20441;-61
2021/09/26 08:51:23;;;;;;;9.00;4.07;;;;;;;28.64;64.10;96444.09;4987650;28;20085;-60
2021/09/26 08:53:53;;;;;;;6.45;4.00;;;;;;;28.91;63.35;96444.00;4986186;28;20068;-60
2021/09/26 08:56:22;;;;;;;4.60;3.80;;;;;;;28.84;62.85;96443.41;4987326;28;20532;-62
2021/09/26 08:58:52;;;;;;;8.88;3.70;;;;;;;27.19;64.67;96452.81;4984712;28;20496;-62
2021/09/26 09:01:21;;;;;;;;;;;;;;;27.48;63.89;96444.50;4987526;28;20085;-61
2021/09/26 09:03:49;;;;;;;7.43;3.65;;;;;;;28.55;60.83;96446.44;4986376;28;20345;-62
2021/09/26 09:06:19;;;;;;;6.82;3.60;;;;;;;29.38;55.69;96450.53;4984211;28;20521;-60
2021/09/26 09:08:47;;;;;;;6.38;3.97;;;;;;;28.83;55.59;96456.16;4986051;28;20453;-62
2021/09/26 09:11:22;;;;;;;5.68;3.65;;;;;;;28.98;56.38;96463.59;4985422;28;20491;-61
2021/09/26 09:13:59;;;;;;;5.25;3.80;;;;;;;29.40;55.00;96467.38;4985921;28;20438;-62
2021/09/26 09:16:31;;;;;;;6.10;3.80;;;;;;;29.90;52.30;96455.09;4989348;28;20074;-62
2021/09/26 09:19:00;;;;;;;6.70;3.60;;;;;;;28.93;53.55;96460.84;4985861;28;20058;-62
2021/09/26 09:21:30;;;;;;;8.50;4.20;;;;;;;29.13;52.90;96456.66;4987094;28;20066;-62
2021/09/26 09:24:15;;;;;;;;;;;;;;;27.39;58.96;96463.91;4986738;28;20062;-58
2021/09/26 09:26:46;;;;;;;7.47;3.85;;;;;;;28.24;55.48;96466.22;4985074;28;19952;-62
2021/09/26 09:29:15;;;;;;;8.00;4.10;;;;;;;28.03;57.11;96466.00;4986895;28;20116;-62
2021/09/26 09:31:51;;;;;;;6.13;3.88;;;;;;;28.74;53.75;96473.19;4985983;28;20062;-59
2021/09/26 09:34:38;;;;;;;6.03;3.88;;;;;;;29.56;50.89;96471.81;4987562;28;20089;-62
2021/09/26 09:37:11;;;;;;;6.95;3.80;;;;;;;28.82;54.89;96473.53;4985696;28;20722;-62
2021/09/26 09:39:41;;;;;;;9.75;4.18;;;;;;;29.10;51.89;96471.56;4985975;28;20058;-61
2021/09/26 09:42:22;;;;;;;8.90;4.30;;;;;;;29.97;50.21;96461.94;5001233;28;20478;-61
2021/09/26 09:44:50;;;;;;;7.65;4.10;;;;;;;30.20;50.97;96457.09;4999898;28;20073;-62
2021/09/26 09:47:21;;;;;;;7.40;4.20;;;;;;;30.76;47.54;96448.16;4986125;28;20058;-61
2021/09/26 09:49:55;;;;;;;8.57;4.05;;;;;;;30.60;48.16;96452.78;4985936;28;20081;-61
2021/09/26 09:52:42;;;;;;;6.45;4.22;;;;;;;29.07;52.21;96453.06;4987069;28;20082;-61
2021/09/26 09:55:15;;;;;;;7.35;4.10;;;;;;;30.16;48.83;96458.69;4985494;28;21513;-62
2021/09/26 09:57:45;;;;;;;8.07;4.07;;;;;;;30.73;47.92;96449.50;4985265;28;20073;-61
2021/09/26 10:00:18;;;;;;;5.95;4.13;;;;;;;29.01;53.42;96462.25;4984579;28;20464;-61
2021/09/26 10:02:47;;;;;;;6.82;4.13;;;;;;;30.01;51.51;96462.22;4982387;28;20066;-62
2021/09/26 10:05:36;;;;;;;6.75;4.25;;;;;;;30.70;48.28;96459.03;4980347;28;20070;-62
2021/09/26 10:08:05;;;;;;;8.07;3.70;;;;;;;29.31;51.24;96467.88;4983577;28;20468;-61
2021/09/26 10:10:34;;;;;;;6.82;3.70;;;;;;;29.86;50.06;96454.81;4984657;28;20074;-58
2021/09/26 10:13:12;;;;;;;7.97;3.70;;;;;;;29.79;51.36;96449.63;4985459;28;20066;-62
2021/09/26 10:15:41;;;;;;;8.35;3.50;;;;;;;30.14;50.91;96455.41;4987675;28;20080;-63
2021/09/26 10:18:09;;;;;;;6.85;3.63;;;;;;;30.62;49.32;96450.59;4985162;28;20066;-62
2021/09/26 10:20:38;;;;;;;7.78;4.18;;;;;;;30.60;48.29;96450.88;4984816;28;20058;-62
2021/09/26 10:23:06;;;;;;;6.53;3.70;;;;;;;30.33;49.97;96453.84;4984706;28;20069;-63
2021/09/26 10:25:35;;;;;;;5.10;3.72;;;;;;;31.02;49.72;96459.84;4986305;28;20517;-61
2021/09/26 10:28:04;;;;;;;3.67;3.35;;;;;;;30.44;50.07;96454.66;4985748;28;20097;-62
2021/09/26 10:30:33;;;;;;;5.63;3.58;;;;;;;30.93;48.17;96457.66;4986550;28;20072;-61
2021/09/26 10:33:02;;;;;;;9.27;4.00;;;;;;;30.44;48.36;96460.09;4984983;28;20480;-62
2021/09/26 10:35:30;;;;;;;7.90;4.13;;;;;;;30.12;49.99;96472.03;4985385;28;20548;-62
2021/09/26 10:37:59;;;;;;;7.50;4.00;;;;;;;30.70;48.17;96469.09;4983627;28;20077;-62
2021/09/26 10:40:27;;;;;;;7.50;3.75;;;;;;;29.77;49.47;96475.47;4988122;28;20078;-61
2021/09/26 10:42:56;;;;;;;8.18;3.53;;;;;;;30.11;48.92;96470.41;4982880;28;20086;-62
2021/09/26 10:45:26;;;;;;;8.00;3.35;;;;;;;31.29;44.94;96473.94;4986388;28;20080;-62
2021/09/26 10:47:56;;;;;;;7.70;3.33;;;;;;;32.47;41.88;96477.00;4983321;28;20537;-62
2021/09/26 10:50:35;;;;;;;5.25;3.30;;;;;;;33.01;40.91;96476.03;4985245;28;20081;-62
2021/09/26 10:53:08;;;;;;;6.00;3.60;;;;;;;32.88;41.07;96473.13;4983076;28;20084;-63
2021/09/26 10:55:36;;;;;;;8.13;3.80;;;;;;;33.33;40.25;96477.31;4986223;28;22418;-62
2021/09/26 10:58:19;;;;;;;6.47;3.65;;;;;;;33.05;41.05;96473.53;4987586;28;20154;-62
2021/09/26 11:00:56;;;;;;;6.72;4.05;;;;;;;32.92;41.07;96461.31;4985134;28;20085;-62
2021/09/26 11:03:37;;;;;;;5.18;3.58;;;;;;;33.31;39.63;96455.75;4984904;28;20070;-62
2021/09/26 11:06:27;;;;;;;6.43;3.10;;;;;;;32.74;41.60;96451.13;4985390;28;20069;-62
2021/09/26 11:08:57;;;;;;;11.07;3.47;;;;;;;31.96;42.37;96447.25;4987066;28;20109;-62
2021/09/26 11:11:35;;;;;;;;;;;;;;;31.91;42.38;96450.03;4989779;28;20108;-62
2021/09/26 11:14:05;;;;;;;6.68;3.55;;;;;;;31.65;42.77;96452.03;4988764;28;20013;-62
2021/09/26 11:16:56;;;;;;;;;;;;;;;32.80;39.52;96450.78;4990429;28;20080;-61
2021/09/26 11:19:26;;;;;;;10.02;3.60;;;;;;;32.77;38.79;96442.34;4990259;28;20310;-62
2021/09/26 11:22:00;;;;;;;19.95;12.00;;;;;;;33.43;38.92;96436.19;4989420;28;20477;-63
2021/09/26 11:24:41;;;;;;;13.00;7.10;;;;;;;33.06;39.59;96436.88;4989126;28;20070;-59
2021/09/26 11:27:14;;;;;;;9.90;3.30;;;;;;;32.38;40.22;96440.44;4987632;28;20524;-62
2021/09/26 11:30:15;;;;;;;5.82;3.53;;;;;;;32.57;39.21;96441.41;4986007;28;20528;-62
2021/09/26 11:32:48;;;;;;;7.63;4.28;;;;;;;31.68;42.92;96440.56;4983351;28;20080;-62
2021/09/26 11:35:29;;;;;;;10.20;5.40;;;;;;;31.71;42.88;96422.84;4988982;28;20088;-63
2021/09/26 11:38:01;;;;;;;9.27;5.00;;;;;;;32.28;42.94;96424.97;4989862;28;21801;-63
2021/09/26 11:41:02;;;;;;;5.47;3.50;;;;;;;31.65;44.94;96420.13;4990279;28;20093;-62